Time;durP1;ratioP1;P1;durP2;ratioP2;P2;SDS_P1;SDS_P2;PMS_P1;PMS_P2;Temp;Humidity;BMP_temperature;BMP_pressure;BME280_temperature;BME280_humidity;BME280_pressure;Samples;Min_cycle;Max_cycle;Signal;HPM_P1;HPM_P2
2022/06/18 00:00:12;;;;;;;3.92;2.45;;;;;;;;;;6177533;28;20054;-81
2022/06/18 00:03:14;;;;;;;3.15;2.53;;;;;;;;;;6181759;28;20046;-82
2022/06/18 00:06:16;;;;;;;2.75;2.50;;;;;;;;;;6176674;28;20049;-81
2022/06/18 00:09:21;;;;;;;4.07;2.53;;;;;;;;;;6174689;28;20092;-80
2022/06/18 00:15:46;;;;;;;;;;;;;;;;;;6179709;28;20199;-81
2022/06/18 00:18:48;;;;;;;4.28;2.50;;;;;;;;;;6174960;28;19948;-82
2022/06/18 00:21:50;;;;;;;3.05;2.15;;;;;;;;;;6177241;28;20092;-82
2022/06/18 00:24:52;;;;;;;3.10;2.50;;;;;;;;;;6171230;28;20109;-82
2022/06/18 00:27:55;;;;;;;2.97;2.42;;;;;;;;;;6178317;28;20074;-82
2022/06/18 00:30:57;;;;;;;2.88;2.67;;;;;;;;;;6171694;28;20050;-82
2022/06/18 00:33:59;;;;;;;2.88;2.50;;;;;;;;;;6174470;28;20038;-80
2022/06/18 00:37:02;;;;;;;2.60;2.40;;;;;;;;;;6173284;28;20117;-81
2022/06/18 00:40:38;;;;;;;2.88;2.65;;;;;;;;;;6173219;28;20112;-82
2022/06/18 00:43:44;;;;;;;2.70;2.50;;;;;;;;;;6193641;28;20524;-80
2022/06/18 00:47:18;;;;;;;2.78;2.50;;;;;;;;;;6173999;28;20062;-82
2022/06/18 00:50:33;;;;;;;3.38;2.40;;;;;;;;;;6183030;28;20050;-81
2022/06/18 00:53:42;;;;;;;3.33;2.65;;;;;;;;;;6167755;28;20043;-82
2022/06/18 00:57:14;;;;;;;2.45;2.25;;;;;;;;;;6171033;28;20042;-82
2022/06/18 01:00:21;;;;;;;2.97;2.40;;;;;;;;;;6183178;28;20069;-82
2022/06/18 01:03:32;;;;;;;2.90;2.60;;;;;;;;;;6177907;28;20066;-81
2022/06/18 01:06:37;;;;;;;3.15;2.53;;;;;;;;;;6180172;28;20130;-81
2022/06/18 01:09:39;;;;;;;4.32;2.70;;;;;;;;;;6178896;28;20046;-81
2022/06/18 01:12:42;;;;;;;;;;;;;;;;;;6183983;28;20109;-81
2022/06/18 01:15:45;;;;;;;3.17;2.78;;;;;;;;;;6173344;28;19943;-80
2022/06/18 01:18:48;;;;;;;3.45;3.00;;;;;;;;;;6181297;28;20058;-82
2022/06/18 01:21:56;;;;;;;;;;;;;;;;;;6161058;28;20069;-81
2022/06/18 01:24:58;;;;;;;2.92;2.53;;;;;;;;;;6174937;28;19949;-81
2022/06/18 01:28:00;;;;;;;3.05;2.75;;;;;;;;;;6166641;28;20184;-81
2022/06/18 01:31:07;;;;;;;3.47;2.78;;;;;;;;;;6173497;28;20059;-82
2022/06/18 01:34:09;;;;;;;2.83;2.55;;;;;;;;;;6183144;28;20042;-80
2022/06/18 01:37:14;;;;;;;3.40;3.00;;;;;;;;;;6167956;28;20046;-81
2022/06/18 01:40:27;;;;;;;2.80;2.60;;;;;;;;;;6160229;28;20122;-80
2022/06/18 01:43:28;;;;;;;4.82;2.67;;;;;;;;;;6174197;28;20089;-82
2022/06/18 01:46:32;;;;;;;3.78;2.88;;;;;;;;;;6176149;28;20043;-82
2022/06/18 01:49:38;;;;;;;3.80;2.78;;;;;;;;;;6162932;28;20046;-82
2022/06/18 01:52:46;;;;;;;3.63;2.97;;;;;;;;;;6176204;28;20212;-82
2022/06/18 01:55:53;;;;;;;2.75;2.50;;;;;;;;;;6176440;28;20084;-82
2022/06/18 01:59:01;;;;;;;4.30;2.67;;;;;;;;;;6155062;28;20121;-81
2022/06/18 02:02:09;;;;;;;4.07;2.90;;;;;;;;;;6153230;28;20327;-80
2022/06/18 02:05:13;;;;;;;3.95;2.72;;;;;;;;;;6178397;28;20112;-81
2022/06/18 02:08:17;;;;;;;5.40;2.70;;;;;;;;;;6168014;28;20056;-81
2022/06/18 02:11:21;;;;;;;3.65;3.03;;;;;;;;;;6179749;28;20053;-80
2022/06/18 02:14:25;;;;;;;3.83;2.88;;;;;;;;;;6172945;28;20047;-82
2022/06/18 02:17:28;;;;;;;3.65;2.65;;;;;;;;;;6157788;28;20049;-81
2022/06/18 02:20:31;;;;;;;;;;;;;;;;;;6180504;28;20054;-82
2022/06/18 02:23:33;;;;;;;4.47;2.50;;;;;;;;;;6165430;28;20360;-82
2022/06/18 02:26:38;;;;;;;3.23;2.77;;;;;;;;;;6169414;28;20275;-81
2022/06/18 02:29:42;;;;;;;4.18;2.70;;;;;;;;;;6177685;28;20879;-80
2022/06/18 02:32:55;;;;;;;3.55;2.83;;;;;;;;;;6178390;28;20122;-80
2022/06/18 02:36:23;;;;;;;4.03;3.27;;;;;;;;;;6186920;28;20180;-80
2022/06/18 02:39:59;;;;;;;3.35;2.97;;;;;;;;;;6169125;28;20544;-80
2022/06/18 02:43:01;;;;;;;3.13;2.80;;;;;;;;;;6176925;28;20472;-80
2022/06/18 02:46:03;;;;;;;4.38;2.70;;;;;;;;;;6178471;28;20074;-81
2022/06/18 02:49:09;;;;;;;4.72;3.15;;;;;;;;;;6181449;28;20192;-81
2022/06/18 02:52:11;;;;;;;3.63;2.97;;;;;;;;;;6179410;28;20101;-80
2022/06/18 02:55:32;;;;;;;3.85;2.72;;;;;;;;;;6166873;28;20505;-81
2022/06/18 02:58:38;;;;;;;3.20;2.90;;;;;;;;;;6169622;28;20121;-80
2022/06/18 03:01:43;;;;;;;4.20;2.75;;;;;;;;;;6177830;28;20054;-81
2022/06/18 03:04:44;;;;;;;4.50;3.03;;;;;;;;;;6177265;28;20140;-80
2022/06/18 03:07:46;;;;;;;3.40;2.97;;;;;;;;;;6174238;28;20136;-80
2022/06/18 03:14:14;;;;;;;3.80;3.38;;;;;;;;;;6175625;28;20050;-80
2022/06/18 03:17:16;;;;;;;2.75;2.53;;;;;;;;;;6186874;28;20050;-80
2022/06/18 03:20:21;;;;;;;3.53;2.80;;;;;;;;;;6179448;28;20069;-81
2022/06/18 03:23:25;;;;;;;3.10;2.80;;;;;;;;;;6183268;28;20110;-81
2022/06/18 03:26:28;;;;;;;3.58;2.90;;;;;;;;;;6185049;28;20058;-80
2022/06/18 03:29:31;;;;;;;3.97;2.78;;;;;;;;;;6165338;28;20195;-80
2022/06/18 03:32:33;;;;;;;3.67;3.08;;;;;;;;;;6181697;28;20050;-81
2022/06/18 03:35:35;;;;;;;3.40;3.08;;;;;;;;;;6180728;28;20043;-80
2022/06/18 03:38:37;;;;;;;4.45;3.00;;;;;;;;;;6173081;28;20059;-80
2022/06/18 03:41:39;;;;;;;2.95;2.65;;;;;;;;;;6178262;28;20046;-80
2022/06/18 03:44:40;;;;;;;4.60;2.90;;;;;;;;;;6179255;28;20359;-80
2022/06/18 03:47:42;;;;;;;2.92;2.65;;;;;;;;;;6180676;28;20054;-81
2022/06/18 03:50:44;;;;;;;4.17;3.23;;;;;;;;;;6159773;28;20075;-80
2022/06/18 03:53:46;;;;;;;4.07;2.83;;;;;;;;;;6175321;28;20050;-80
2022/06/18 03:56:48;;;;;;;3.50;3.10;;;;;;;;;;6188483;28;20060;-78
2022/06/18 03:59:51;;;;;;;3.42;3.13;;;;;;;;;;6180038;28;20527;-79
2022/06/18 04:02:53;;;;;;;5.65;3.50;;;;;;;;;;6180602;28;20132;-79
2022/06/18 04:05:55;;;;;;;5.65;3.42;;;;;;;;;;6156655;28;20046;-82
2022/06/18 04:08:56;;;;;;;4.40;3.40;;;;;;;;;;6149244;28;20401;-79
2022/06/18 04:12:00;;;;;;;4.93;3.63;;;;;;;;;;6152198;28;20616;-79
2022/06/18 04:15:03;;;;;;;4.68;3.60;;;;;;;;;;6178649;28;20388;-79
2022/06/18 04:18:12;;;;;;;4.03;3.38;;;;;;;;;;6179952;28;20043;-82
2022/06/18 04:21:15;;;;;;;3.40;3.08;;;;;;;;;;6174889;28;20513;-81
2022/06/18 04:24:18;;;;;;;4.37;3.00;;;;;;;;;;6187971;28;20531;-82
2022/06/18 04:27:24;;;;;;;3.55;2.97;;;;;;;;;;6187665;28;20133;-78
2022/06/18 04:30:29;;;;;;;3.85;2.95;;;;;;;;;;6186163;28;20046;-77
2022/06/18 04:33:34;;;;;;;5.13;2.75;;;;;;;;;;6154486;28;20042;-79
2022/06/18 04:37:11;;;;;;;3.55;3.20;;;;;;;;;;6186709;28;20058;-78
2022/06/18 04:40:34;;;;;;;5.82;3.60;;;;;;;;;;6182169;28;20189;-80
2022/06/18 04:44:07;;;;;;;4.32;3.42;;;;;;;;;;6156965;28;20051;-80
2022/06/18 04:47:09;;;;;;;3.40;3.10;;;;;;;;;;6181894;28;20106;-80
2022/06/18 04:50:22;;;;;;;3.92;3.30;;;;;;;;;;6180834;28;20046;-79
2022/06/18 04:53:24;;;;;;;5.72;2.75;;;;;;;;;;6168398;28;20409;-78
2022/06/18 04:56:30;;;;;;;3.85;3.30;;;;;;;;;;6176942;28;20134;-80
2022/06/18 04:59:32;;;;;;;4.30;3.05;;;;;;;;;;6187351;28;20061;-80
2022/06/18 05:02:36;;;;;;;;;;;;;;;;;;6157083;28;20130;-80
2022/06/18 05:05:52;;;;;;;3.35;2.85;;;;;;;;;;6181399;28;20091;-80
2022/06/18 05:09:12;;;;;;;5.75;3.33;;;;;;;;;;6176821;28;20042;-80
2022/06/18 05:12:32;;;;;;;3.65;3.10;;;;;;;;;;6152768;28;20039;-80
2022/06/18 05:15:57;;;;;;;3.83;2.85;;;;;;;;;;6186892;28;20066;-80
2022/06/18 05:18:59;;;;;;;3.35;3.05;;;;;;;;;;6191635;28;20046;-80
2022/06/18 05:22:01;;;;;;;3.45;3.15;;;;;;;;;;6181668;28;20047;-81
2022/06/18 05:25:05;;;;;;;5.13;3.20;;;;;;;;;;6188799;28;20066;-80
2022/06/18 05:28:08;;;;;;;3.80;3.40;;;;;;;;;;6181891;28;20069;-80
2022/06/18 05:31:10;;;;;;;3.20;2.90;;;;;;;;;;6179305;28;20466;-80
2022/06/18 05:34:12;;;;;;;3.93;2.80;;;;;;;;;;6188770;28;20046;-80
2022/06/18 05:37:16;;;;;;;3.58;2.88;;;;;;;;;;6185377;28;20137;-80
2022/06/18 05:40:20;;;;;;;6.18;3.22;;;;;;;;;;6166174;28;20042;-80
2022/06/18 05:43:22;;;;;;;3.70;3.17;;;;;;;;;;6200245;28;20073;-80
2022/06/18 05:46:24;;;;;;;3.63;3.28;;;;;;;;;;6179006;28;20047;-80
2022/06/18 05:49:27;;;;;;;3.45;3.13;;;;;;;;;;6183377;28;20042;-79
2022/06/18 05:52:29;;;;;;;3.83;3.40;;;;;;;;;;6179124;28;20177;-79
2022/06/18 05:55:36;;;;;;;4.35;3.25;;;;;;;;;;6167751;28;20057;-80
2022/06/18 05:58:57;;;;;;;5.63;3.45;;;;;;;;;;6185380;28;20042;-81
2022/06/18 06:02:02;;;;;;;3.50;3.00;;;;;;;;;;6180296;28;20043;-79
2022/06/18 06:05:04;;;;;;;3.55;3.03;;;;;;;;;;6172891;28;20070;-79
2022/06/18 06:08:11;;;;;;;3.90;3.60;;;;;;;;;;6182941;28;20038;-79
2022/06/18 06:11:29;;;;;;;4.28;3.28;;;;;;;;;;6184639;28;20480;-79
2022/06/18 06:14:37;;;;;;;3.93;3.30;;;;;;;;;;6175637;28;20065;-80
2022/06/18 06:17:39;;;;;;;;;;;;;;;;;;6179885;28;21044;-80
2022/06/18 06:20:43;;;;;;;4.85;3.53;;;;;;;;;;6183547;28;20004;-80
2022/06/18 06:23:45;;;;;;;3.78;3.45;;;;;;;;;;6186101;28;20552;-78
2022/06/18 06:26:46;;;;;;;5.90;3.80;;;;;;;;;;6176841;28;20281;-79
2022/06/18 06:29:48;;;;;;;4.35;3.60;;;;;;;;;;6180942;28;20093;-78
2022/06/18 06:32:49;;;;;;;5.38;3.42;;;;;;;;;;6180490;28;20489;-81
2022/06/18 06:35:51;;;;;;;5.20;3.20;;;;;;;;;;6185009;28;20188;-80
2022/06/18 06:38:53;;;;;;;4.10;3.13;;;;;;;;;;6177566;28;20507;-80
2022/06/18 06:41:54;;;;;;;5.63;3.63;;;;;;;;;;6179066;28;20068;-80
2022/06/18 06:44:58;;;;;;;5.55;3.20;;;;;;;;;;6180994;28;20069;-81
2022/06/18 06:48:00;;;;;;;5.00;3.22;;;;;;;;;;6179627;28;20043;-80
2022/06/18 06:51:02;;;;;;;4.40;3.15;;;;;;;;;;6184689;28;20117;-80
2022/06/18 06:54:04;;;;;;;5.70;3.17;;;;;;;;;;6174754;28;20042;-80
2022/06/18 06:57:21;;;;;;;3.95;3.17;;;;;;;;;;6184448;28;20042;-80
2022/06/18 07:00:22;;;;;;;3.90;2.75;;;;;;;;;;6156963;28;20046;-80
2022/06/18 07:03:32;;;;;;;3.20;3.00;;;;;;;;;;6183042;28;20046;-80
2022/06/18 07:06:35;;;;;;;3.67;3.00;;;;;;;;;;6172653;28;20116;-81
2022/06/18 07:09:37;;;;;;;2.85;2.55;;;;;;;;;;6150993;28;20058;-81
2022/06/18 07:12:39;;;;;;;5.40;2.90;;;;;;;;;;6160894;28;20071;-80
2022/06/18 07:15:42;;;;;;;2.90;2.70;;;;;;;;;;6176941;28;20042;-82
2022/06/18 07:18:43;;;;;;;3.72;2.55;;;;;;;;;;6177390;28;20047;-81
2022/06/18 07:21:46;;;;;;;3.10;2.30;;;;;;;;;;6158299;28;20069;-81
2022/06/18 07:24:47;;;;;;;2.60;2.40;;;;;;;;;;6167719;28;20042;-81
2022/06/18 07:27:52;;;;;;;2.92;2.40;;;;;;;;;;6186439;28;20060;-81
2022/06/18 07:30:55;;;;;;;3.08;2.35;;;;;;;;;;6169583;28;20068;-81
2022/06/18 07:34:00;;;;;;;2.70;2.50;;;;;;;;;;6181261;28;20353;-81
2022/06/18 07:37:02;;;;;;;3.38;2.50;;;;;;;;;;6183510;28;20134;-82
2022/06/18 07:40:04;;;;;;;2.58;2.40;;;;;;;;;;6178244;28;20126;-78
2022/06/18 07:43:19;;;;;;;3.97;2.50;;;;;;;;;;6184384;28;20043;-78
2022/06/18 07:46:20;;;;;;;2.55;2.35;;;;;;;;;;6177683;28;20042;-79
2022/06/18 07:49:22;;;;;;;2.33;2.13;;;;;;;;;;6148172;28;20054;-81
2022/06/18 07:52:24;;;;;;;2.60;2.38;;;;;;;;;;6178554;28;20091;-81
2022/06/18 07:55:28;;;;;;;3.15;2.25;;;;;;;;;;6153068;28;20107;-81
2022/06/18 07:58:29;;;;;;;2.53;2.10;;;;;;;;;;6173822;28;20046;-79
2022/06/18 08:01:40;;;;;;;3.50;2.80;;;;;;;;;;6172798;28;20043;-79
2022/06/18 08:05:20;;;;;;;3.55;2.35;;;;;;;;;;6166420;28;20076;-80
2022/06/18 08:08:27;;;;;;;2.28;2.08;;;;;;;;;;6175448;28;20058;-79
2022/06/18 08:11:38;;;;;;;2.80;2.35;;;;;;;;;;6180141;28;20074;-79
2022/06/18 08:14:39;;;;;;;;;;;;;;;;;;6171461;28;20046;-80
2022/06/18 08:17:41;;;;;;;2.30;2.20;;;;;;;;;;6180433;28;19925;-79
2022/06/18 08:20:43;;;;;;;3.00;2.23;;;;;;;;;;6151852;28;20055;-79
2022/06/18 08:23:46;;;;;;;2.45;2.25;;;;;;;;;;6184122;28;20087;-78
2022/06/18 08:26:50;;;;;;;3.55;2.33;;;;;;;;;;6184595;28;20050;-79
2022/06/18 08:29:52;;;;;;;2.33;2.10;;;;;;;;;;6176607;28;20081;-77
2022/06/18 08:32:53;;;;;;;3.10;2.25;;;;;;;;;;6173643;28;20051;-78
2022/06/18 08:35:57;;;;;;;4.05;2.20;;;;;;;;;;6143423;28;20482;-79
2022/06/18 08:38:59;;;;;;;3.08;2.50;;;;;;;;;;6167815;28;20046;-79
2022/06/18 08:42:09;;;;;;;3.22;2.40;;;;;;;;;;6177936;28;20504;-79
2022/06/18 08:45:23;;;;;;;2.60;2.20;;;;;;;;;;6172810;28;20051;-79
2022/06/18 08:48:43;;;;;;;2.50;2.10;;;;;;;;;;6148658;28;20138;-80
2022/06/18 08:52:27;;;;;;;2.40;2.20;;;;;;;;;;6171615;28;20046;-80
2022/06/18 08:55:35;;;;;;;2.45;2.20;;;;;;;;;;6150482;28;20046;-80
2022/06/18 08:58:47;;;;;;;2.65;2.20;;;;;;;;;;6177409;28;20050;-79
2022/06/18 09:01:56;;;;;;;3.65;2.40;;;;;;;;;;6168780;28;20084;-80
2022/06/18 09:05:13;;;;;;;2.85;2.30;;;;;;;;;;6147496;28;20058;-80
2022/06/18 09:08:34;;;;;;;4.05;2.53;;;;;;;;;;6173132;28;20504;-80
2022/06/18 09:11:36;;;;;;;2.67;2.38;;;;;;;;;;6171802;28;25613;-81
2022/06/18 09:14:47;;;;;;;2.53;2.33;;;;;;;;;;6176630;28;20054;-81
2022/06/18 09:17:53;;;;;;;4.45;2.30;;;;;;;;;;6177697;28;20053;-81
2022/06/18 09:20:58;;;;;;;2.80;2.38;;;;;;;;;;6182862;28;20069;-82
2022/06/18 09:24:04;;;;;;;2.55;2.17;;;;;;;;;;6172833;28;20042;-82
2022/06/18 09:27:10;;;;;;;2.95;2.20;;;;;;;;;;6184191;28;20124;-81
2022/06/18 09:30:23;;;;;;;3.58;2.40;;;;;;;;;;6150443;28;20073;-81
2022/06/18 09:33:28;;;;;;;;;;;;;;;;;;6153857;28;20051;-81
2022/06/18 09:36:35;;;;;;;4.20;2.83;;;;;;;;;;6167371;28;19932;-81
2022/06/18 09:39:44;;;;;;;3.38;2.63;;;;;;;;;;6172906;28;20524;-81
2022/06/18 09:42:51;;;;;;;2.40;2.20;;;;;;;;;;6170935;28;20134;-81
2022/06/18 09:45:58;;;;;;;3.35;2.33;;;;;;;;;;6167819;28;20125;-81
2022/06/18 09:48:59;;;;;;;4.80;2.63;;;;;;;;;;6158268;28;20132;-82
2022/06/18 09:52:14;;;;;;;5.22;2.70;;;;;;;;;;6162092;28;20062;-81
2022/06/18 09:55:58;;;;;;;4.72;2.70;;;;;;;;;;6165825;28;20044;-81
2022/06/18 09:59:29;;;;;;;5.38;2.72;;;;;;;;;;6165341;28;20129;-81
2022/06/18 10:02:33;;;;;;;6.72;2.92;;;;;;;;;;6149707;28;20042;-80
2022/06/18 10:09:09;;;;;;;4.38;3.03;;;;;;;;;;6172635;28;20042;-81
2022/06/18 10:12:22;;;;;;;3.88;2.70;;;;;;;;;;6183268;28;20278;-81
2022/06/18 10:15:26;;;;;;;4.88;3.17;;;;;;;;;;6170086;28;20184;-81
2022/06/18 10:18:49;;;;;;;4.68;2.85;;;;;;;;;;6177269;28;20550;-81
2022/06/18 10:22:09;;;;;;;4.18;3.15;;;;;;;;;;6173762;28;20134;-81
2022/06/18 10:25:42;;;;;;;7.13;3.03;;;;;;;;;;6176397;28;20130;-81
2022/06/18 10:28:54;;;;;;;8.15;2.80;;;;;;;;;;6174686;28;20069;-82
2022/06/18 10:32:18;;;;;;;8.95;3.53;;;;;;;;;;6166120;28;20129;-85
2022/06/18 10:35:43;;;;;;;6.40;2.90;;;;;;;;;;6166178;28;20686;-83
2022/06/18 10:39:09;;;;;;;6.68;2.90;;;;;;;;;;6168365;28;20185;-82
2022/06/18 10:42:48;;;;;;;5.47;2.97;;;;;;;;;;6161118;28;20824;-81
2022/06/18 10:45:59;;;;;;;8.00;3.08;;;;;;;;;;6162556;28;20220;-81
2022/06/18 10:49:04;;;;;;;7.25;2.78;;;;;;;;;;6172769;28;20692;-82
2022/06/18 10:52:17;;;;;;;7.75;3.08;;;;;;;;;;6162172;28;20081;-82
2022/06/18 10:55:21;;;;;;;6.63;3.13;;;;;;;;;;6177243;28;20041;-81
2022/06/18 10:58:23;;;;;;;7.80;2.63;;;;;;;;;;6198817;28;20551;-81
2022/06/18 11:01:32;;;;;;;10.70;3.13;;;;;;;;;;6171975;28;20049;-83
2022/06/18 11:04:35;;;;;;;9.95;2.95;;;;;;;;;;6156464;28;20043;-82
2022/06/18 11:07:37;;;;;;;8.73;2.83;;;;;;;;;;6183894;28;20064;-81
2022/06/18 11:11:04;;;;;;;10.13;2.97;;;;;;;;;;6165227;28;20042;-82
2022/06/18 11:14:18;;;;;;;7.40;2.88;;;;;;;;;;6166305;28;20177;-84
2022/06/18 11:17:32;;;;;;;8.68;3.10;;;;;;;;;;6160152;28;20194;-83
2022/06/18 11:20:33;;;;;;;8.85;3.83;;;;;;;;;;6183114;28;20527;-83
2022/06/18 11:23:36;;;;;;;4.93;2.83;;;;;;;;;;6177091;28;20053;-82
2022/06/18 11:27:02;;;;;;;6.47;2.80;;;;;;;;;;6177773;28;20057;-82
2022/06/18 11:30:20;;;;;;;9.25;3.10;;;;;;;;;;6172575;28;20437;-83
2022/06/18 11:33:28;;;;;;;8.23;3.00;;;;;;;;;;6175885;28;20069;-83
2022/06/18 11:36:47;;;;;;;4.80;2.78;;;;;;;;;;6163927;28;20053;-83
2022/06/18 11:40:03;;;;;;;9.27;3.05;;;;;;;;;;6171039;28;20046;-81
2022/06/18 11:43:26;;;;;;;5.85;2.70;;;;;;;;;;6150963;28;20504;-82
2022/06/18 11:46:36;;;;;;;7.60;2.90;;;;;;;;;;6162077;28;20065;-82
2022/06/18 11:49:52;;;;;;;6.80;2.45;;;;;;;;;;6170445;28;20055;-83
2022/06/18 11:53:10;;;;;;;6.32;2.80;;;;;;;;;;6171519;28;20039;-83
2022/06/18 11:56:23;;;;;;;6.78;2.80;;;;;;;;;;6165482;28;20181;-83
2022/06/18 11:59:38;;;;;;;6.32;2.30;;;;;;;;;;6178061;28;20047;-83
2022/06/18 12:02:47;;;;;;;5.35;2.80;;;;;;;;;;6154339;28;20077;-82
2022/06/18 12:05:57;;;;;;;6.75;2.80;;;;;;;;;;6158488;28;20457;-82
2022/06/18 12:08:59;;;;;;;6.38;3.10;;;;;;;;;;6154365;28;20050;-82
2022/06/18 12:12:19;;;;;;;8.98;3.10;;;;;;;;;;6179166;28;20720;-83
2022/06/18 12:15:34;;;;;;;7.28;2.78;;;;;;;;;;6182219;28;20058;-83
2022/06/18 12:18:36;;;;;;;7.25;2.88;;;;;;;;;;6185052;28;20061;-83
2022/06/18 12:22:00;;;;;;;8.52;3.20;;;;;;;;;;6186514;28;20782;-83
2022/06/18 12:25:14;;;;;;;10.02;3.20;;;;;;;;;;6179729;28;20042;-84
2022/06/18 12:28:37;;;;;;;6.70;3.13;;;;;;;;;;6177500;28;20051;-83
2022/06/18 12:31:47;;;;;;;5.15;3.00;;;;;;;;;;6177017;28;20050;-84
2022/06/18 12:34:59;;;;;;;7.35;3.08;;;;;;;;;;6186616;28;20061;-82
2022/06/18 12:38:04;;;;;;;;;;;;;;;;;;6187765;28;20130;-82
2022/06/18 12:41:40;;;;;;;6.65;2.90;;;;;;;;;;6145193;28;19949;-82
2022/06/18 12:44:50;;;;;;;10.25;4.32;;;;;;;;;;6173198;28;20115;-82
2022/06/18 12:48:10;;;;;;;9.60;3.55;;;;;;;;;;6180291;28;20071;-82
2022/06/18 12:51:39;;;;;;;9.13;3.47;;;;;;;;;;6189059;28;20061;-83
2022/06/18 12:54:59;;;;;;;11.02;2.90;;;;;;;;;;6179215;28;20130;-83
2022/06/18 12:58:28;;;;;;;11.63;3.05;;;;;;;;;;6177144;28;20513;-83
2022/06/18 13:01:30;;;;;;;9.30;2.90;;;;;;;;;;6164913;28;20056;-82
2022/06/18 13:04:38;;;;;;;;;;;;;;;;;;6182185;28;20042;-83
2022/06/18 13:07:47;;;;;;;9.43;2.65;;;;;;;;;;6186110;28;19965;-82
2022/06/18 13:11:11;;;;;;;9.07;3.38;;;;;;;;;;6182649;28;20201;-83
2022/06/18 13:14:42;;;;;;;12.05;3.20;;;;;;;;;;6162708;28;20102;-82
2022/06/18 13:17:58;;;;;;;12.87;3.43;;;;;;;;;;6156023;28;20050;-82
2022/06/18 13:21:01;;;;;;;7.97;3.65;;;;;;;;;;6190974;28;20557;-82
2022/06/18 13:31:22;;;;;;;7.22;3.15;;;;;;;;;;6181147;28;20118;-83
2022/06/18 13:34:41;;;;;;;10.32;4.15;;;;;;;;;;6187721;28;20145;-83
2022/06/18 13:38:01;;;;;;;8.48;3.75;;;;;;;;;;6171473;28;20061;-80
2022/06/18 13:41:28;;;;;;;7.43;3.05;;;;;;;;;;6185438;28;20047;-81
2022/06/18 13:44:55;;;;;;;6.85;3.42;;;;;;;;;;6171813;28;20070;-83
2022/06/18 13:48:16;;;;;;;6.68;3.00;;;;;;;;;;6174466;28;20054;-83
2022/06/18 13:51:54;;;;;;;9.55;2.80;;;;;;;;;;6191496;28;20051;-83
2022/06/18 13:54:57;;;;;;;8.10;3.38;;;;;;;;;;6156400;28;20174;-82
2022/06/18 13:57:59;;;;;;;8.15;3.30;;;;;;;;;;6175639;28;20112;-82
2022/06/18 14:01:13;;;;;;;7.45;3.33;;;;;;;;;;6177431;28;20050;-83
2022/06/18 14:04:33;;;;;;;7.28;3.40;;;;;;;;;;6174713;28;20070;-83
2022/06/18 14:07:41;;;;;;;9.35;3.38;;;;;;;;;;6159146;28;20049;-83
2022/06/18 14:10:45;;;;;;;9.30;3.80;;;;;;;;;;6184549;28;20058;-82
2022/06/18 14:13:49;;;;;;;7.95;3.42;;;;;;;;;;6196223;28;20216;-81
2022/06/18 14:17:05;;;;;;;9.05;3.53;;;;;;;;;;6205128;28;20074;-82
2022/06/18 14:20:37;;;;;;;7.47;3.53;;;;;;;;;;6191351;28;20042;-83
2022/06/18 14:23:43;;;;;;;7.05;3.20;;;;;;;;;;6171672;28;20570;-82
2022/06/18 14:26:49;;;;;;;8.43;3.33;;;;;;;;;;6187575;28;20054;-81
2022/06/18 14:29:51;;;;;;;7.32;3.08;;;;;;;;;;6176075;28;20136;-82
2022/06/18 14:32:58;;;;;;;11.05;3.40;;;;;;;;;;6164247;28;20051;-83
2022/06/18 14:36:16;;;;;;;5.38;3.17;;;;;;;;;;6179292;28;20042;-83
2022/06/18 14:39:27;;;;;;;10.07;3.40;;;;;;;;;;6183870;28;20054;-82
2022/06/18 14:42:49;;;;;;;9.25;3.47;;;;;;;;;;6183885;28;20520;-82
2022/06/18 14:46:14;;;;;;;6.13;3.10;;;;;;;;;;6172330;28;20093;-83
2022/06/18 14:49:50;;;;;;;7.65;3.15;;;;;;;;;;6173686;28;20046;-82
2022/06/18 14:53:26;;;;;;;8.50;3.80;;;;;;;;;;6153753;28;20057;-83
2022/06/18 14:57:05;;;;;;;7.10;3.17;;;;;;;;;;6175488;28;20121;-82
2022/06/18 15:00:28;;;;;;;4.72;3.40;;;;;;;;;;6169329;28;20045;-81
2022/06/18 15:03:45;;;;;;;7.68;3.50;;;;;;;;;;6169875;28;20121;-82
2022/06/18 15:06:48;;;;;;;7.82;3.60;;;;;;;;;;6180598;28;20444;-83
2022/06/18 15:09:50;;;;;;;7.85;3.30;;;;;;;;;;6181026;28;20093;-82
2022/06/18 15:12:52;;;;;;;11.38;3.65;;;;;;;;;;6165612;28;20535;-82
2022/06/18 15:16:18;;;;;;;9.18;4.15;;;;;;;;;;6188791;28;20042;-83
2022/06/18 15:22:56;;;;;;;7.60;3.53;;;;;;;;;;6165608;28;20117;-82
2022/06/18 15:26:05;;;;;;;5.00;3.17;;;;;;;;;;6179002;28;20098;-82
2022/06/18 15:29:14;;;;;;;8.45;3.58;;;;;;;;;;6192358;28;20174;-81
2022/06/18 15:32:23;;;;;;;7.35;3.40;;;;;;;;;;6175469;28;20045;-82
2022/06/18 15:35:29;;;;;;;7.53;3.45;;;;;;;;;;6175843;28;20196;-82
2022/06/18 15:38:35;;;;;;;7.97;3.80;;;;;;;;;;6175490;28;20166;-82
2022/06/18 15:41:42;;;;;;;6.72;3.60;;;;;;;;;;6181690;28;20117;-81
2022/06/18 15:44:47;;;;;;;6.20;3.58;;;;;;;;;;6182054;28;20047;-81
2022/06/18 15:47:53;;;;;;;5.85;3.55;;;;;;;;;;6175724;28;20042;-81
2022/06/18 15:50:59;;;;;;;9.70;3.58;;;;;;;;;;6185318;28;20066;-80
2022/06/18 15:54:22;;;;;;;9.07;3.58;;;;;;;;;;6171797;28;20053;-80
2022/06/18 15:57:32;;;;;;;8.52;3.85;;;;;;;;;;6162658;28;20047;-84
2022/06/18 16:00:37;;;;;;;6.72;3.85;;;;;;;;;;6151437;28;20075;-82
2022/06/18 16:03:40;;;;;;;9.65;3.80;;;;;;;;;;6167311;28;20055;-82
2022/06/18 16:06:42;;;;;;;5.45;3.58;;;;;;;;;;6181977;28;20128;-83
2022/06/18 16:10:04;;;;;;;9.32;3.53;;;;;;;;;;6177389;28;20070;-81
2022/06/18 16:13:15;;;;;;;9.50;3.88;;;;;;;;;;6178279;28;20046;-83
2022/06/18 16:16:35;;;;;;;8.00;3.80;;;;;;;;;;6178162;28;20046;-81
2022/06/18 16:19:47;;;;;;;7.25;3.72;;;;;;;;;;6188025;28;20043;-80
2022/06/18 16:22:59;;;;;;;9.60;3.58;;;;;;;;;;6181579;28;20042;-81
2022/06/18 16:26:01;;;;;;;9.05;3.63;;;;;;;;;;6160753;28;20059;-82
2022/06/18 16:29:03;;;;;;;11.15;3.80;;;;;;;;;;6162085;28;20057;-82
2022/06/18 16:32:27;;;;;;;10.45;3.65;;;;;;;;;;6151066;28;20061;-82
2022/06/18 16:35:29;;;;;;;12.18;4.90;;;;;;;;;;6177650;28;20130;-83
2022/06/18 16:38:37;;;;;;;;;;;;;;;;;;6175034;28;20057;-82
2022/06/18 16:41:42;;;;;;;10.65;3.53;;;;;;;;;;6168382;28;20276;-81
2022/06/18 16:44:44;;;;;;;9.90;4.55;;;;;;;;;;6151138;28;20039;-81
2022/06/18 16:47:56;;;;;;;7.93;3.67;;;;;;;;;;6180067;28;20054;-83
2022/06/18 16:50:58;;;;;;;13.98;4.65;;;;;;;;;;6179188;28;20496;-82
2022/06/18 16:54:02;;;;;;;10.80;3.95;;;;;;;;;;6177030;28;20400;-83
2022/06/18 16:57:14;;;;;;;13.45;3.45;;;;;;;;;;6161699;28;22264;-81
2022/06/18 17:00:19;;;;;;;10.75;3.40;;;;;;;;;;6196760;28;20090;-80
2022/06/18 17:03:21;;;;;;;11.15;3.63;;;;;;;;;;6181770;28;20062;-82
2022/06/18 17:06:23;;;;;;;6.40;3.38;;;;;;;;;;6158199;28;20055;-80
2022/06/18 17:09:26;;;;;;;8.63;3.70;;;;;;;;;;6150327;28;20050;-81
2022/06/18 17:12:27;;;;;;;12.30;3.70;;;;;;;;;;6160885;28;20107;-83
2022/06/18 17:15:29;;;;;;;8.00;3.95;;;;;;;;;;6164366;28;20176;-80
2022/06/18 17:18:30;;;;;;;12.80;3.95;;;;;;;;;;6159338;28;20047;-81
2022/06/18 17:21:32;;;;;;;8.63;3.58;;;;;;;;;;6188537;28;20169;-80
2022/06/18 17:31:22;;;;;;;8.90;3.85;;;;;;;;;;6179754;28;20142;-81
2022/06/18 17:34:24;;;;;;;6.72;3.38;;;;;;;;;;6191701;28;20050;-80
2022/06/18 17:37:27;;;;;;;10.93;3.42;;;;;;;;;;6165815;28;20151;-80
2022/06/18 17:40:29;;;;;;;8.23;3.80;;;;;;;;;;6182541;28;20046;-79
2022/06/18 17:43:36;;;;;;;11.50;3.95;;;;;;;;;;6201924;28;20096;-78
2022/06/18 17:46:38;;;;;;;11.98;3.75;;;;;;;;;;6175151;28;20058;-83
2022/06/18 17:49:40;;;;;;;;;;;;;;;;;;6187968;28;20054;-82
2022/06/18 17:52:42;;;;;;;9.90;3.50;;;;;;;;;;6183172;28;20634;-82
2022/06/18 17:55:44;;;;;;;14.05;3.65;;;;;;;;;;6190179;28;20051;-82
2022/06/18 17:58:45;;;;;;;11.98;3.70;;;;;;;;;;6181190;28;20202;-82
2022/06/18 18:01:54;;;;;;;10.68;3.28;;;;;;;;;;6181763;28;20129;-80
2022/06/18 18:04:56;;;;;;;8.52;3.38;;;;;;;;;;6181707;28;20062;-83
2022/06/18 18:07:58;;;;;;;11.40;4.00;;;;;;;;;;6176123;28;20066;-83
2022/06/18 18:10:59;;;;;;;7.55;3.38;;;;;;;;;;6155419;28;20067;-82
2022/06/18 18:14:01;;;;;;;5.43;3.40;;;;;;;;;;6162545;28;20065;-82
2022/06/18 18:17:03;;;;;;;7.93;3.90;;;;;;;;;;6178317;28;20050;-82
2022/06/18 18:20:06;;;;;;;8.77;3.30;;;;;;;;;;6179646;28;20160;-83
2022/06/18 18:23:08;;;;;;;15.13;4.35;;;;;;;;;;6191807;28;20563;-81
2022/06/18 18:26:13;;;;;;;10.88;3.58;;;;;;;;;;6173795;28;20127;-82
2022/06/18 18:29:17;;;;;;;8.63;3.92;;;;;;;;;;6179464;28;20487;-82
2022/06/18 18:32:20;;;;;;;9.38;4.25;;;;;;;;;;6184171;28;20069;-82
2022/06/18 18:35:23;;;;;;;9.30;4.18;;;;;;;;;;6175329;28;20061;-81
2022/06/18 18:38:25;;;;;;;13.13;5.72;;;;;;;;;;6180404;28;20062;-81
2022/06/18 18:41:31;;;;;;;;;;;;;;;;;;6183923;28;20555;-81
2022/06/18 18:44:34;;;;;;;11.63;4.43;;;;;;;;;;6176605;28;19922;-82
2022/06/18 18:47:36;;;;;;;12.68;4.47;;;;;;;;;;6171293;28;20094;-80
2022/06/18 18:50:38;;;;;;;10.63;4.13;;;;;;;;;;6160689;28;20055;-82
2022/06/18 18:53:44;;;;;;;7.38;3.58;;;;;;;;;;6163597;28;20054;-82
2022/06/18 18:56:46;;;;;;;9.30;4.00;;;;;;;;;;6177901;28;20161;-82
2022/06/18 18:59:47;;;;;;;8.80;4.20;;;;;;;;;;6172906;28;20038;-82
2022/06/18 19:02:49;;;;;;;11.35;5.28;;;;;;;;;;6178095;28;20046;-82
2022/06/18 19:05:51;;;;;;;11.45;4.07;;;;;;;;;;6156350;28;20067;-81
2022/06/18 19:08:52;;;;;;;11.15;4.28;;;;;;;;;;6146681;28;20053;-81
2022/06/18 19:15:17;;;;;;;15.13;4.88;;;;;;;;;;6176324;28;20053;-80
2022/06/18 19:18:26;;;;;;;9.60;4.07;;;;;;;;;;6179953;28;20527;-81
2022/06/18 19:21:28;;;;;;;11.30;4.68;;;;;;;;;;6188035;28;20042;-81
2022/06/18 19:24:30;;;;;;;10.93;5.23;;;;;;;;;;6174446;28;20047;-80